x

Shelikof Strait, Ak (46077) Wave Buoy

2:50am - Fri 22nd Aug 2014 All times are AKDT. -8 hours from GMT.

  • Sig Wave height 1.3ft
  • Peak Period 4s
  • Average Period 4s
  • Wind
    9mph
  • Sea Temp 55°f
  • Air Temp 55°f
  • Sea Pressure 1022.3mb
  • Shelikof  Strait, Ak
  • Shelikof  Strait, Ak

More Historic Weather Station data

Upgrade to MSW Pro to gain access to the past 30 days of data for over 8000 Wavebouys and Weather Stations around the globe.

Join Pro

Comparision Forecast

View Surf forecast
   
Fri 08/22 2:50am 1.3ft 4s 4s 9
mph
1022.3mb 55f 55f
1:50am 1.3ft 4s 4s 9 11 mph 1022.2mb 55f 55f
12:50am 1.3ft 4s 4s 9 11 mph 1022.3mb 55f 55f
Thu 08/21 11:50pm 1.6ft 8s 4s 9 11 mph 1022.5mb 54f 56f
10:50pm 1.6ft 7s 4s 13 16 mph 1022.2mb 55f 56f
9:50pm 1.6ft 7s 4s 11 13 mph 1022mb 55f 55f
8:50pm 1.6ft 8s 4s 13 16 mph 1021.9mb 54f 55f
7:50pm 1.6ft 4s 4s 13
mph
1022.1mb 55f 55f
6:50pm 1.6ft 8s 4s 11 13 mph 1022.4mb 55f 56f
5:50pm 1.3ft 4s 4s 11 13 mph 1022.6mb 55f 56f
4:50pm 1.3ft 5s 4s 11 13 mph 1022.7mb 55f 55f
3:50pm 1.3ft 4s 4s 9 11 mph 1022.9mb 54f 55f
2:50pm 1.3ft 4s 5s 9 11 mph 1022.9mb 55f 55f
1:50pm 1.3ft 4s 4s 9 11 mph 1023mb 55f 55f
12:50pm 1.6ft 4s 4s 9 11 mph 1022.8mb 54f 56f
10:50am 1.6ft 4s 4s 9
mph
1022.9mb 55f 56f
9:50am 1.3ft 4s 4s 9 11 mph 1023mb 55f 56f
8:50am 1.6ft 4s 4s 11 13 mph 1022.7mb 55f 55f
7:50am 1.6ft 4s 4s 11 13 mph 1022.5mb 55f 55f
6:50am 1.6ft 4s 4s 11 13 mph 1022.5mb 56f 56f
5:50am 1.6ft 4s 4s 9 11 mph 1022.5mb 56f 56f
4:50am 1.6ft 5s 4s 11 13 mph 1022.5mb 56f 56f
3:50am 1.6ft 4s 4s 11 13 mph 1022.3mb 56f 56f
2:50am 1.3ft 4s 4s 11 13 mph 1022mb 56f 56f
1:50am 1.6ft 4s 4s 11 13 mph 1021.7mb 56f 56f
12:50am 1.6ft 4s 4s 13 16 mph 1021.4mb 56f 57f
Wed 08/20 11:50pm 2ft 4s 4s 13 18 mph 1021.4mb 56f 57f
10:50pm 1.6ft 4s 4s 13 16 mph 1020.8mb 56f 57f
9:50pm 1.6ft 4s 3s 16 20 mph 1020.2mb 56f 57f
8:50pm 1.6ft 4s 4s 13 16 mph 1020.2mb 57f 57f
7:50pm 1.3ft 4s 4s 13 16 mph 1020.1mb 57f 57f
6:50pm 1.3ft 4s 4s 11 16 mph 1020mb 57f 57f
5:50pm 1.3ft 4s 4s 13 16 mph 1020mb 57f 57f
4:50pm 1.3ft 4s 4s 11 13 mph 1019.9mb 57f 57f
3:50pm 1.3ft 4s 4s 9 11 mph 1020mb 57f 57f
2:50pm 1.3ft 4s 4s 9 11 mph 1019.9mb 56f 57f
1:50pm 1.3ft 4s 4s 11 13 mph 1019.9mb 56f 56f
12:50pm 1.3ft 7s 4s 9 11 mph 1019.5mb 56f 56f
11:50am 1.3ft 6s 4s 9
mph
1019.3mb 56f 56f
10:50am 1.3ft 4s 4s 11 13 mph 1019.1mb 56f 56f
9:50am 1.3ft 7s 4s 9 11 mph 1018.9mb 56f 56f
8:50am 1.3ft 4s 4s 9 11 mph 1018.8mb 56f 55f
7:50am 1.3ft 4s 4s 7 9 mph 1018.6mb 56f 55f
6:50am 1.3ft 6s 4s 9 11 mph 1018.3mb 56f 55f
5:50am 1.3ft 8s 4s 9 11 mph 1018.1mb 56f 56f
4:50am 1.3ft 7s 5s 7
mph
1017.8mb 56f 56f
3:50am 1.3ft 7s 6s 9 11 mph 1017.2mb 56f 56f
2:50am 1.3ft 7s 6s 9
mph
1017.1mb 56f 56f
1:50am 1.3ft 6s 6s 7
mph
1017mb 56f 56f
12:50am 1.3ft 7s 6s 7
mph
1016.5mb 56f 56f
Tue 08/19 11:50pm 1.6ft 7s 6s 4 7 mph 1016.3mb 57f 56f
10:50pm 1.6ft 7s 6s 2 4 mph 1016mb 57f 56f
9:50pm 1.3ft 7s 6s 4 7 mph 1015.7mb 57f 57f
8:50pm 1.3ft 7s 6s 7
mph
1015.5mb 57f 57f
7:50pm 1.3ft 8s 6s 4 7 mph 1015.6mb 57f 58f
6:50pm 1.3ft 7s 5s 2 4 mph 1015.5mb 57f 58f
5:50pm 1.3ft 8s 5s 4 7 mph 1015.6mb 57f 57f
4:50pm 1.3ft 8s 5s  -  2 mph 1015.7mb 57f 59f
2:50pm 1.6ft 8s 5s 2
mph
1015.9mb 56f 56f
1:50pm 1.6ft 8s 6s  -  2 mph 1015.7mb 55f 56f
12:50pm 1.6ft 8s 6s 2
mph
1015.9mb 55f 56f
11:50am 2ft 8s 5s 2
mph
1016mb 54f 55f
10:50am 2ft 8s 5s 4
mph
1015.7mb 53f 54f
9:50am 2ft 8s 5s 4 7 mph 1015.8mb 53f 54f
8:50am 2ft 8s 5s 9 11 mph 1016mb 53f 54f
7:50am 2ft 8s 5s 11
mph
1015.9mb 53f 54f
6:50am 2.5ft 8s 5s 9 11 mph 1016mb 54f 54f
5:50am 2.5ft 8s 5s 11 13 mph 1016.1mb 54f 54f
4:50am 2.5ft 8s 4s 13 16 mph 1016.2mb 54f 55f
3:50am 2.5ft 8s 4s 13 16 mph 1016.3mb 54f 55f
2:50am 2ft 8s 4s 13
mph
1016.6mb 54f 55f
1:50am 2.5ft 9s 4s 11 13 mph 1016.8mb 54f 55f
12:50am 2.5ft 8s 4s 13 16 mph 1016.6mb 54f 55f
Mon 08/18 11:50pm 2.5ft 4s 4s 16 18 mph 1016.4mb 55f 55f
10:50pm 2.5ft 4s 4s 16 18 mph 1016.2mb 55f 56f
9:50pm 3ft 4s 4s 16 20 mph 1016mb 55f 56f
8:50pm 3.5ft 4s 4s 18 20 mph 1015.9mb 55f 56f
7:50pm 3.5ft 4s 4s 18 20 mph 1016.3mb 55f 56f
6:50pm 3.5ft 4s 4s 22 27 mph 1016.4mb 54f 56f
5:50pm 3.5ft 5s 4s 20 25 mph 1016.3mb 55f 56f
4:50pm 3.5ft 8s 4s 18 22 mph 1016.5mb 55f 56f
3:50pm 3.5ft 4s 5s 18 22 mph 1016.8mb 55f 56f
2:50pm 3.5ft 5s 5s 18 25 mph 1016.7mb 55f 56f
1:50pm 4ft 5s 5s 18 20 mph 1016.9mb 55f 55f
12:50pm 4ft 5s 5s 20 22 mph 1016.5mb 55f 55f